CheckWX is a tool to help pilots better visualize weather data.  It is not intended as a substitute for an official pre-flight weather briefing.

14:50:44 UTC

UMKK TAF
Khrabrovo Airport
Kaliningrad, Russian Federation
TAF UMKK 231400Z 2315/2415 28007G12MPS 3100 BR BKN005 BKN011 TEMPO 2315/2321 26008MPS 1100 -DZRA BR BKN003 PROB40 TEMPO 2315/2321 0300 FG BKN002 BECMG 2321/2323 9999 NSW SCT011 TEMPO 2323/2412 30005G10MPS BKN020

Mar-23@
15:00 UTC

Mar-23 @ 15:00 UTC

Mar-23@
21:00 UTC

Mar-23 @ 21:00 UTC

TAF UMKK 231400Z 2315/2415 28007G12MPS 3100 BR BKN005 BKN011
Wind
  • 280° at 14 KTS
  • {Gusting to 23 KTS
Conditions
Mist
Cloud Levels
  • Broken at 500' AGL
  • Broken at 1,100' AGL

Mar-23@
15:00 UTC

Mar-23 @ 15:00 UTC

Mar-23@
21:00 UTC

Mar-23 @ 21:00 UTC

TEMPO 2315/2321 26008MPS 1100 -DZRA BR BKN003

Temporary

Temporary Changes expected for less than half the time period

Wind
  • 260° at 16 KTS
Conditions
Light Drizzle, Light Rain, Mist
Cloud Levels
  • Broken at 300' AGL

Mar-23@
15:00 UTC

Mar-23 @ 15:00 UTC

Mar-23@
21:00 UTC

Mar-23 @ 21:00 UTC

PROB40 TEMPO 2315/2321 0300 FG BKN002

Temporary - 40% Likelihood

Temporary - 40% Likelihood during this time.

Conditions
Fog
Cloud Levels
  • Broken at 200' AGL

Mar-23@
21:00 UTC

Mar-23 @ 21:00 UTC

Mar-24@
15:00 UTC

Mar-24 @ 15:00 UTC

BECMG 2321/2323 9999 NSW SCT011

Becoming

Becoming Conditions expected by Sat, Mar 23, 2019 @ 23:00 UTC

Wind
  • 280° at 14 KTS
  • {Gusting to 23 KTS
Conditions
No significant weather
Cloud Levels
  • Scattered at 1,100' AGL

Mar-23@
23:00 UTC

Mar-23 @ 23:00 UTC

Mar-24@
12:00 UTC

Mar-24 @ 12:00 UTC

TEMPO 2323/2412 30005G10MPS BKN020

Temporary

Temporary Changes expected for less than half the time period

Wind
  • 300° at 10 KTS
  • {Gusting to 19 KTS
Cloud Levels
  • Broken at 2,000' AGL